createdAt,value
2018-08-20T00:01:33.503Z,6.47
2018-08-20T00:04:02.930Z,6.40
2018-08-20T00:06:37.055Z,5.37
2018-08-20T00:09:05.875Z,4.87
2018-08-20T00:11:34.627Z,4.30
2018-08-20T00:14:03.412Z,4.70
2018-08-20T00:16:32.183Z,3.60
2018-08-20T00:19:00.942Z,4.03
2018-08-20T00:21:29.887Z,3.77
2018-08-20T00:23:58.655Z,3.60
2018-08-20T00:26:27.664Z,4.30
2018-08-20T00:28:56.426Z,3.30
2018-08-20T00:31:25.182Z,3.97
2018-08-20T00:33:53.934Z,3.00
2018-08-20T00:36:22.690Z,3.40
2018-08-20T00:38:51.490Z,3.13
2018-08-20T00:41:20.242Z,3.27
2018-08-20T00:43:48.987Z,2.67
2018-08-20T00:46:17.754Z,2.93
2018-08-20T00:48:46.519Z,3.17
2018-08-20T00:51:15.381Z,2.53
2018-08-20T00:53:44.184Z,3.00
2018-08-20T00:56:12.970Z,2.87
2018-08-20T00:58:41.719Z,2.60
2018-08-20T01:01:10.486Z,2.60
2018-08-20T01:03:39.251Z,3.13
2018-08-20T01:06:08.012Z,2.80
2018-08-20T01:08:36.799Z,3.00
2018-08-20T01:11:05.579Z,3.00
2018-08-20T01:13:34.339Z,2.90
2018-08-20T01:16:03.182Z,3.33
2018-08-20T01:18:31.936Z,3.00
2018-08-20T01:21:00.696Z,3.00
2018-08-20T01:23:29.491Z,3.00
2018-08-20T01:25:58.271Z,3.20
2018-08-20T01:28:27.066Z,3.10
2018-08-20T01:30:56.086Z,3.27
2018-08-20T01:33:24.848Z,3.53
2018-08-20T01:35:53.604Z,3.60
2018-08-20T01:38:22.374Z,3.80
2018-08-20T01:40:51.148Z,3.27
2018-08-20T01:43:19.906Z,3.40
2018-08-20T01:45:48.684Z,3.07
2018-08-20T01:48:17.444Z,2.87
2018-08-20T01:50:46.196Z,3.70
2018-08-20T01:53:15.007Z,3.03
2018-08-20T01:55:43.819Z,3.40
2018-08-20T01:58:12.567Z,3.53
2018-08-20T02:00:41.360Z,3.33
2018-08-20T02:03:10.475Z,3.60
2018-08-20T02:05:39.219Z,3.00
2018-08-20T02:08:08.063Z,3.47
2018-08-20T02:10:36.854Z,3.87
2018-08-20T02:13:05.654Z,4.03
2018-08-20T02:15:34.492Z,3.40
2018-08-20T02:18:03.257Z,3.67
2018-08-20T02:20:32.026Z,3.43
2018-08-20T02:23:00.788Z,3.10
2018-08-20T02:25:29.535Z,3.63
2018-08-20T02:27:58.282Z,3.60
2018-08-20T02:30:27.050Z,3.70
2018-08-20T02:32:55.823Z,3.43
2018-08-20T02:35:24.608Z,3.53
2018-08-20T02:37:53.395Z,3.43
2018-08-20T02:40:22.193Z,3.47
2018-08-20T02:42:50.923Z,3.53
2018-08-20T02:45:19.802Z,3.80
2018-08-20T02:47:48.563Z,3.53
2018-08-20T02:50:17.303Z,3.80
2018-08-20T02:52:46.155Z,3.67
2018-08-20T02:55:14.923Z,4.23
2018-08-20T02:57:43.720Z,4.50
2018-08-20T03:00:13.476Z,4.50
2018-08-20T03:02:42.254Z,4.50
2018-08-20T03:05:11.926Z,4.30
2018-08-20T03:07:40.790Z,4.40
2018-08-20T03:10:10.903Z,4.63
2018-08-20T03:12:39.714Z,4.50
2018-08-20T03:15:09.255Z,4.83
2018-08-20T03:17:37.995Z,4.70
2018-08-20T03:20:07.026Z,4.43
2018-08-20T03:22:35.866Z,3.97
2018-08-20T03:25:05.156Z,4.60
2018-08-20T03:27:33.907Z,4.10
2018-08-20T03:30:03.172Z,4.63
2018-08-20T03:32:32.040Z,5.17
2018-08-20T03:35:00.892Z,4.73
2018-08-20T03:37:30.032Z,4.90
2018-08-20T03:39:58.902Z,4.40
2018-08-20T03:42:27.655Z,4.70
2018-08-20T03:44:56.443Z,4.00
2018-08-20T03:47:25.244Z,4.20
2018-08-20T03:49:54.035Z,4.77
2018-08-20T03:52:22.798Z,4.70
2018-08-20T03:54:51.589Z,4.13
2018-08-20T03:57:20.351Z,4.80
2018-08-20T03:59:49.139Z,4.70
2018-08-20T04:02:17.915Z,4.40
2018-08-20T04:04:46.660Z,4.63
2018-08-20T04:07:22.099Z,4.83
2018-08-20T04:09:50.875Z,4.40
2018-08-20T04:12:19.620Z,4.77
2018-08-20T04:14:48.375Z,4.63
2018-08-20T04:17:17.111Z,4.53
2018-08-20T04:19:45.898Z,5.13
2018-08-20T04:22:14.707Z,4.87
2018-08-20T04:24:43.459Z,5.03
2018-08-20T04:27:12.216Z,4.13
2018-08-20T04:29:40.972Z,4.60
2018-08-20T04:32:09.728Z,4.23
2018-08-20T04:34:38.511Z,4.20
2018-08-20T04:37:07.367Z,4.13
2018-08-20T04:39:36.129Z,4.07
2018-08-20T04:42:04.920Z,4.10
2018-08-20T04:44:33.671Z,3.97
2018-08-20T04:47:02.456Z,3.73
2018-08-20T04:49:31.183Z,3.83
2018-08-20T04:51:59.943Z,3.80
2018-08-20T04:54:28.674Z,3.77
2018-08-20T04:59:32.559Z,4.00
2018-08-20T05:02:01.311Z,4.10
2018-08-20T05:04:30.039Z,3.27
2018-08-20T05:06:58.817Z,3.67
2018-08-20T05:09:27.554Z,3.83
2018-08-20T05:11:56.341Z,3.50
2018-08-20T05:14:25.135Z,5.07
2018-08-20T05:16:53.895Z,3.73
2018-08-20T05:19:22.626Z,4.00
2018-08-20T05:21:51.395Z,4.07
2018-08-20T05:24:20.157Z,5.07
2018-08-20T05:26:48.936Z,4.10
2018-08-20T05:29:17.699Z,3.63
2018-08-20T05:31:46.439Z,4.33
2018-08-20T05:34:15.175Z,3.73
2018-08-20T05:36:43.980Z,4.27
2018-08-20T05:39:12.727Z,3.97
2018-08-20T05:41:41.479Z,4.17
2018-08-20T05:44:10.271Z,4.17
2018-08-20T05:46:39.052Z,4.00
2018-08-20T05:49:07.848Z,3.67
2018-08-20T05:51:36.635Z,3.30
2018-08-20T05:54:05.457Z,3.70
2018-08-20T05:56:34.245Z,3.37
2018-08-20T05:59:03.053Z,3.77
2018-08-20T06:01:31.872Z,3.50
2018-08-20T06:04:00.674Z,3.70
2018-08-20T06:06:29.488Z,3.50
2018-08-20T06:08:58.307Z,3.23
2018-08-20T06:11:27.119Z,3.17
2018-08-20T06:13:55.960Z,3.27
2018-08-20T06:16:24.714Z,3.10
2018-08-20T06:18:53.552Z,2.83
2018-08-20T06:21:22.366Z,3.60
2018-08-20T06:23:51.223Z,3.40
2018-08-20T06:26:20.011Z,2.93
2018-08-20T06:28:48.788Z,3.30
2018-08-20T06:31:17.615Z,3.07
2018-08-20T06:33:46.403Z,3.13
2018-08-20T06:36:15.164Z,2.90
2018-08-20T06:38:43.980Z,3.40
2018-08-20T06:41:12.838Z,3.50
2018-08-20T06:43:41.600Z,3.80
2018-08-20T06:46:10.801Z,3.43
2018-08-20T06:48:39.671Z,3.90
2018-08-20T06:51:08.447Z,3.67
2018-08-20T06:53:37.216Z,3.90
2018-08-20T06:56:06.057Z,4.17
2018-08-20T06:58:34.847Z,4.20
2018-08-20T07:01:03.628Z,4.30
2018-08-20T07:03:32.494Z,4.10
2018-08-20T07:06:01.240Z,3.40
2018-08-20T07:08:30.036Z,3.87
2018-08-20T07:10:58.840Z,3.67
2018-08-20T07:13:30.102Z,3.63
2018-08-20T07:15:58.909Z,3.47
2018-08-20T07:18:27.660Z,3.30
2018-08-20T07:20:56.514Z,3.20
2018-08-20T07:23:25.417Z,3.10
2018-08-20T07:25:54.191Z,3.10
2018-08-20T07:28:22.987Z,3.33
2018-08-20T07:30:51.774Z,3.30
2018-08-20T07:33:20.563Z,3.40
2018-08-20T07:35:49.355Z,3.20
2018-08-20T07:38:18.187Z,3.50
2018-08-20T07:40:46.971Z,3.13
2018-08-20T07:43:15.779Z,3.13
2018-08-20T07:45:44.591Z,3.53
2018-08-20T07:48:13.399Z,3.60
2018-08-20T07:50:42.250Z,3.57
2018-08-20T07:53:11.054Z,3.50
2018-08-20T07:55:40.006Z,4.50
2018-08-20T07:58:09.243Z,3.33
2018-08-20T08:00:38.098Z,3.23
2018-08-20T08:03:06.916Z,3.70
2018-08-20T08:05:35.741Z,3.43
2018-08-20T08:08:04.543Z,3.40
2018-08-20T08:10:33.744Z,3.20
2018-08-20T08:13:02.668Z,3.20
2018-08-20T08:15:31.555Z,3.33
2018-08-20T08:18:00.344Z,3.17
2018-08-20T08:20:29.112Z,2.97
2018-08-20T08:22:57.920Z,2.90
2018-08-20T08:25:26.715Z,3.00
2018-08-20T08:27:55.468Z,3.00
2018-08-20T08:30:24.251Z,2.80
2018-08-20T08:32:53.070Z,2.70
2018-08-20T08:35:21.892Z,2.87
2018-08-20T08:37:50.739Z,3.10
2018-08-20T08:40:19.625Z,3.33
2018-08-20T08:42:48.533Z,2.80
2018-08-20T08:45:18.323Z,2.70
2018-08-20T08:47:47.356Z,2.80
2018-08-20T08:50:17.132Z,2.63
2018-08-20T08:52:46.470Z,2.57
2018-08-20T08:55:15.736Z,2.30
2018-08-20T08:57:44.649Z,2.90
2018-08-20T09:00:17.504Z,2.40
2018-08-20T09:02:46.500Z,2.70
2018-08-20T09:05:15.391Z,2.13
2018-08-20T09:07:44.594Z,2.25
2018-08-20T09:10:13.588Z,2.10
2018-08-20T09:12:42.486Z,2.57
2018-08-20T09:15:13.337Z,2.13
2018-08-20T09:17:42.311Z,2.10
2018-08-20T09:20:13.128Z,2.27
2018-08-20T09:22:42.039Z,2.40
2018-08-20T09:25:11.951Z,2.27
2018-08-20T09:27:41.567Z,2.25
2018-08-20T09:30:12.157Z,2.15
2018-08-20T09:32:41.044Z,1.90
2018-08-20T09:35:10.484Z,1.90
2018-08-20T09:37:39.674Z,2.20
2018-08-20T09:40:09.208Z,1.73
2018-08-20T09:42:39.181Z,1.43
2018-08-20T09:45:08.123Z,1.45
2018-08-20T09:47:38.201Z,1.82
2018-08-20T09:50:07.751Z,1.57
2018-08-20T09:52:36.528Z,1.70
2018-08-20T09:55:05.419Z,1.98
2018-08-20T09:57:34.411Z,2.40
2018-08-20T10:00:03.283Z,2.10
2018-08-20T10:02:32.123Z,1.95
2018-08-20T10:05:01.171Z,1.65
2018-08-20T10:07:30.050Z,1.55
2018-08-20T10:09:58.807Z,1.57
2018-08-20T10:12:27.592Z,2.00
2018-08-20T10:14:56.439Z,1.70
2018-08-20T10:17:25.384Z,1.83
2018-08-20T10:19:54.262Z,1.80
2018-08-20T10:22:23.123Z,2.08
2018-08-20T10:24:51.960Z,1.72
2018-08-20T10:27:21.110Z,1.72
2018-08-20T10:29:50.012Z,1.62
2018-08-20T10:32:18.847Z,1.50
2018-08-20T10:34:47.732Z,1.60
2018-08-20T10:37:16.499Z,1.32
2018-08-20T10:39:45.319Z,1.10
2018-08-20T10:42:14.147Z,0.98
2018-08-20T10:44:48.475Z,1.67
2018-08-20T10:47:17.320Z,1.90
2018-08-20T10:49:46.200Z,1.70
2018-08-20T10:52:15.104Z,1.90
2018-08-20T10:54:43.969Z,2.07
2018-08-20T10:57:12.862Z,2.10
2018-08-20T10:59:41.718Z,2.33
2018-08-20T11:02:10.733Z,2.10
2018-08-20T11:04:39.607Z,2.20
2018-08-20T11:07:08.464Z,1.93
2018-08-20T11:09:37.242Z,2.20
2018-08-20T11:12:06.146Z,2.20
2018-08-20T11:14:34.944Z,2.30
2018-08-20T11:17:03.715Z,1.90
2018-08-20T11:19:32.483Z,1.90
2018-08-20T11:22:01.320Z,2.23
2018-08-20T11:24:30.087Z,2.37
2018-08-20T11:26:58.958Z,2.50
2018-08-20T11:29:27.696Z,2.63
2018-08-20T11:31:56.491Z,2.83
2018-08-20T11:34:25.339Z,3.60
2018-08-20T11:36:54.175Z,3.00
2018-08-20T11:39:22.995Z,3.30
2018-08-20T11:41:51.788Z,3.70
2018-08-20T11:44:20.584Z,3.47
2018-08-20T11:46:49.363Z,3.73
2018-08-20T11:49:18.174Z,2.43
2018-08-20T11:51:47.123Z,2.67
2018-08-20T11:54:15.898Z,2.17
2018-08-20T11:56:44.704Z,2.33
2018-08-20T11:59:13.511Z,2.40
2018-08-20T12:01:42.368Z,2.40
2018-08-20T12:04:11.220Z,3.02
2018-08-20T12:06:40.098Z,2.25
2018-08-20T12:09:08.918Z,2.80
2018-08-20T12:11:38.089Z,2.77
2018-08-20T12:14:06.907Z,3.02
2018-08-20T12:16:35.744Z,3.20
2018-08-20T12:19:04.659Z,3.17
2018-08-20T12:21:33.475Z,3.10
2018-08-20T12:24:02.325Z,2.72
2018-08-20T12:26:31.113Z,2.22
2018-08-20T12:28:59.940Z,2.85
2018-08-20T12:31:28.809Z,2.20
2018-08-20T12:33:57.625Z,1.98
2018-08-20T12:36:26.487Z,2.80
2018-08-20T12:38:55.299Z,2.47
2018-08-20T12:41:24.206Z,2.02
2018-08-20T12:43:53.055Z,2.55
2018-08-20T12:46:21.874Z,2.60
2018-08-20T12:48:51.995Z,2.20
2018-08-20T12:51:21.651Z,2.40
2018-08-20T12:53:50.441Z,2.67
2018-08-20T12:56:19.245Z,2.98
2018-08-20T12:58:50.632Z,2.90
2018-08-20T13:01:19.630Z,2.98
2018-08-20T13:03:50.435Z,3.12
2018-08-20T13:06:19.218Z,3.00
2018-08-20T13:08:48.214Z,2.83
2018-08-20T13:11:16.926Z,3.37
2018-08-20T13:13:46.308Z,3.20
2018-08-20T13:16:15.096Z,3.25
2018-08-20T13:18:43.887Z,3.45
2018-08-20T13:21:12.652Z,3.65
2018-08-20T13:23:41.428Z,3.70
2018-08-20T13:26:10.279Z,4.37
2018-08-20T13:28:39.059Z,3.22
2018-08-20T13:31:07.847Z,4.17
2018-08-20T13:33:36.589Z,3.92
2018-08-20T13:36:05.351Z,3.33
2018-08-20T13:38:34.138Z,3.12
2018-08-20T13:41:02.914Z,5.78
2018-08-20T13:43:31.780Z,3.92
2018-08-20T13:46:00.544Z,3.45
2018-08-20T13:48:29.384Z,2.92
2018-08-20T13:50:58.217Z,3.12
2018-08-20T13:53:26.981Z,2.98
2018-08-20T13:55:55.795Z,4.05
2018-08-20T13:58:24.690Z,3.85
2018-08-20T14:00:53.528Z,3.85
2018-08-20T14:03:22.334Z,2.20
2018-08-20T14:05:51.557Z,3.45
2018-08-20T14:08:20.402Z,2.70
2018-08-20T14:10:49.209Z,2.25
2018-08-20T14:13:18.096Z,5.37
2018-08-20T14:15:46.977Z,3.02
2018-08-20T14:18:15.704Z,3.30
2018-08-20T14:20:51.723Z,2.47
2018-08-20T14:23:20.528Z,3.10
2018-08-20T14:25:49.363Z,5.67
2018-08-20T14:28:18.146Z,17.90
2018-08-20T14:30:46.964Z,4.28
2018-08-20T14:35:50.820Z,3.92
2018-08-20T14:38:19.556Z,3.43
2018-08-20T14:40:48.375Z,4.23
2018-08-20T14:43:17.191Z,4.00
2018-08-20T14:45:51.417Z,5.33
2018-08-20T14:48:20.195Z,3.77
2018-08-20T14:50:49.165Z,3.60
2018-08-20T14:53:17.928Z,3.50
2018-08-20T14:55:46.710Z,3.43
2018-08-20T14:58:15.499Z,3.30
2018-08-20T15:00:44.303Z,2.67
2018-08-20T15:03:13.037Z,2.37
2018-08-20T15:05:41.798Z,3.03
2018-08-20T15:08:10.795Z,4.10
2018-08-20T15:10:39.595Z,2.47
2018-08-20T15:13:08.404Z,2.70
2018-08-20T15:15:37.312Z,5.57
2018-08-20T15:18:06.031Z,2.43
2018-08-20T15:20:34.768Z,2.20
2018-08-20T15:23:03.615Z,2.47
2018-08-20T15:25:32.411Z,2.33
2018-08-20T15:28:01.343Z,3.17
2018-08-20T15:30:30.108Z,2.50
2018-08-20T15:32:58.936Z,2.73
2018-08-20T15:35:27.791Z,3.90
2018-08-20T15:37:56.604Z,6.17
2018-08-20T15:40:25.367Z,3.03
2018-08-20T15:42:54.143Z,3.53
2018-08-20T15:45:22.993Z,3.23
2018-08-20T15:47:51.863Z,3.40
2018-08-20T15:50:20.732Z,3.07
2018-08-20T15:52:49.549Z,3.87
2018-08-20T15:55:18.303Z,3.73
2018-08-20T15:57:47.116Z,4.07
2018-08-20T16:00:15.917Z,3.50
2018-08-20T16:02:45.058Z,3.60
2018-08-20T16:05:13.834Z,3.57
2018-08-20T16:07:42.880Z,3.60
2018-08-20T16:10:12.296Z,4.10
2018-08-20T16:12:41.156Z,3.87
2018-08-20T16:15:10.340Z,3.73
2018-08-20T16:17:39.235Z,3.50
2018-08-20T16:20:08.146Z,4.27
2018-08-20T16:22:37.275Z,3.70
2018-08-20T16:25:06.458Z,3.47
2018-08-20T16:27:35.417Z,3.37
2018-08-20T16:30:05.627Z,3.20
2018-08-20T16:32:34.467Z,2.90
2018-08-20T16:35:03.346Z,2.87
2018-08-20T16:37:32.226Z,3.07
2018-08-20T16:40:01.023Z,3.17
2018-08-20T16:42:29.827Z,3.87
2018-08-20T16:44:58.656Z,3.53
2018-08-20T16:47:27.446Z,3.97
2018-08-20T16:49:56.270Z,3.03
2018-08-20T16:52:25.087Z,3.50
2018-08-20T16:54:53.859Z,3.57
2018-08-20T16:57:22.666Z,3.63
2018-08-20T16:59:51.559Z,3.67
2018-08-20T17:02:25.899Z,3.60
2018-08-20T17:04:54.815Z,3.30
2018-08-20T17:07:23.563Z,3.60
2018-08-20T17:09:52.370Z,3.03
2018-08-20T17:12:21.213Z,3.40
2018-08-20T17:14:50.123Z,3.30
2018-08-20T17:17:18.862Z,2.90
2018-08-20T17:19:47.650Z,3.10
2018-08-20T17:22:16.477Z,3.10
2018-08-20T17:24:45.331Z,3.00
2018-08-20T17:27:14.120Z,2.70
2018-08-20T17:29:42.912Z,2.97
2018-08-20T17:32:11.738Z,2.67
2018-08-20T17:34:42.544Z,3.23
2018-08-20T17:37:11.492Z,2.80
2018-08-20T17:39:49.492Z,3.10
2018-08-20T17:42:18.327Z,3.37
2018-08-20T17:44:47.089Z,5.40
2018-08-20T17:47:20.163Z,3.43
2018-08-20T17:49:48.966Z,3.27
2018-08-20T17:52:17.757Z,2.93
2018-08-20T17:54:46.631Z,3.70
2018-08-20T17:57:15.567Z,3.33
2018-08-20T17:59:44.429Z,3.30
2018-08-20T18:02:28.608Z,3.60
2018-08-20T18:04:57.499Z,3.50
2018-08-20T18:07:26.268Z,3.20
2018-08-20T18:09:55.075Z,3.77
2018-08-20T18:12:23.907Z,4.03
2018-08-20T18:14:57.219Z,4.10
2018-08-20T18:17:26.045Z,3.63
2018-08-20T18:19:54.886Z,3.60
2018-08-20T18:22:24.588Z,3.63
2018-08-20T18:27:33.763Z,3.30
2018-08-20T18:30:02.636Z,3.90
2018-08-20T18:32:31.871Z,3.47
2018-08-20T18:35:00.706Z,3.90
2018-08-20T18:37:30.046Z,3.60
2018-08-20T18:40:00.122Z,3.33
2018-08-20T18:42:34.229Z,3.40
2018-08-20T18:45:03.088Z,3.50
2018-08-20T18:47:32.019Z,3.40
2018-08-20T18:50:00.791Z,3.03
2018-08-20T18:52:30.147Z,3.47
2018-08-20T18:54:59.599Z,3.77
2018-08-20T18:57:30.233Z,3.67
2018-08-20T18:59:59.706Z,3.67
2018-08-20T19:03:01.253Z,3.57
2018-08-20T19:05:38.624Z,3.77
2018-08-20T19:08:12.047Z,3.70
2018-08-20T19:10:40.827Z,3.83
2018-08-20T19:13:09.584Z,3.67
2018-08-20T19:15:40.478Z,3.80
2018-08-20T19:18:11.448Z,3.90
2018-08-20T19:20:40.818Z,4.33
2018-08-20T19:23:11.156Z,4.43
2018-08-20T19:25:40.064Z,4.30
2018-08-20T19:28:13.424Z,3.60
2018-08-20T19:30:42.227Z,3.87
2018-08-20T19:33:16.227Z,4.77
2018-08-20T19:35:45.943Z,4.60
2018-08-20T19:38:14.807Z,4.87
2018-08-20T19:40:43.952Z,4.50
2018-08-20T19:43:12.815Z,4.80
2018-08-20T19:45:43.722Z,4.23
2018-08-20T19:48:13.095Z,5.20
2018-08-20T19:50:41.935Z,4.87
2018-08-20T19:53:28.293Z,4.70
2018-08-20T19:55:57.524Z,4.90
2018-08-20T19:58:33.480Z,4.90
2018-08-20T20:01:13.945Z,4.57
2018-08-20T20:03:44.354Z,3.80
2018-08-20T20:06:14.144Z,4.53
2018-08-20T20:08:43.079Z,4.33
2018-08-20T20:11:22.554Z,4.97
2018-08-20T20:13:52.124Z,3.90
2018-08-20T20:19:16.254Z,3.43
2018-08-20T20:21:45.949Z,4.37
2018-08-20T20:24:17.468Z,4.47
2018-08-20T20:27:00.945Z,4.10
2018-08-20T20:29:31.986Z,3.83
2018-08-20T20:32:05.469Z,4.13
2018-08-20T20:37:16.862Z,3.80
2018-08-20T20:39:51.511Z,4.37
2018-08-20T20:42:20.434Z,3.43
2018-08-20T20:44:50.083Z,3.93
2018-08-20T20:47:19.850Z,3.73
2018-08-20T20:49:48.643Z,4.40
2018-08-20T20:52:17.887Z,3.40
2018-08-20T20:54:47.241Z,4.27
2018-08-20T20:57:16.098Z,3.97
2018-08-20T20:59:44.884Z,3.60
2018-08-20T21:02:13.933Z,3.53
2018-08-20T21:04:42.730Z,3.37
2018-08-20T21:07:13.144Z,3.90
2018-08-20T21:09:47.888Z,4.07
2018-08-20T21:12:19.011Z,3.70
2018-08-20T21:14:48.304Z,4.50
2018-08-20T21:17:17.224Z,4.00
2018-08-20T21:19:50.960Z,4.03
2018-08-20T21:22:20.304Z,4.10
2018-08-20T21:24:49.226Z,4.40
2018-08-20T21:27:26.553Z,4.00
2018-08-20T21:30:10.054Z,4.13
2018-08-20T21:32:44.704Z,4.63
2018-08-20T21:35:15.030Z,4.67
2018-08-20T21:37:44.215Z,5.07
2018-08-20T21:40:17.686Z,5.17
2018-08-20T21:42:51.056Z,4.47
2018-08-20T21:45:19.870Z,4.80
2018-08-20T21:47:49.033Z,4.77
2018-08-20T21:50:17.986Z,5.33
2018-08-20T21:52:56.535Z,5.67
2018-08-20T21:58:18.989Z,4.43
2018-08-20T22:00:53.926Z,4.77
2018-08-20T22:03:22.750Z,4.67
2018-08-20T22:05:51.911Z,4.80
2018-08-20T22:08:20.839Z,5.00
2018-08-20T22:10:49.981Z,5.07
2018-08-20T22:13:19.283Z,5.20
2018-08-20T22:16:02.567Z,5.10
2018-08-20T22:18:36.037Z,4.53
2018-08-20T22:21:28.505Z,4.70
2018-08-20T22:23:57.906Z,3.80
2018-08-20T22:26:26.840Z,4.17
2018-08-20T22:28:55.776Z,4.57
2018-08-20T22:31:24.565Z,4.43
2018-08-20T22:33:58.970Z,4.40
2018-08-20T22:36:29.561Z,4.10
2018-08-20T22:39:00.856Z,5.20
2018-08-20T22:41:30.905Z,4.93
2018-08-20T22:43:59.768Z,5.43
2018-08-20T22:46:28.635Z,5.10
2018-08-20T22:48:58.744Z,7.57
2018-08-20T22:51:29.492Z,6.57
2018-08-20T22:53:59.392Z,5.80
2018-08-20T22:56:31.085Z,6.40
2018-08-20T22:59:02.621Z,5.87
2018-08-20T23:01:31.579Z,7.20
2018-08-20T23:04:00.428Z,8.13
2018-08-20T23:06:29.993Z,8.37
2018-08-20T23:08:59.397Z,9.50
2018-08-20T23:11:38.740Z,10.73
2018-08-20T23:14:08.531Z,9.37
2018-08-20T23:16:37.767Z,8.63
2018-08-20T23:19:07.620Z,8.13
2018-08-20T23:21:41.776Z,7.47
2018-08-20T23:24:11.853Z,6.47
2018-08-20T23:26:41.150Z,6.23
2018-08-20T23:29:11.166Z,6.87
2018-08-20T23:31:40.392Z,6.47
2018-08-20T23:34:12.694Z,6.43
2018-08-20T23:36:42.316Z,7.00
2018-08-20T23:39:12.967Z,7.90
2018-08-20T23:41:42.265Z,8.17
2018-08-20T23:44:12.281Z,8.67
2018-08-20T23:46:43.264Z,8.13
2018-08-20T23:49:12.523Z,7.97
2018-08-20T23:51:41.895Z,8.20
2018-08-20T23:54:11.928Z,7.67
2018-08-20T23:56:40.870Z,6.67
2018-08-20T23:59:09.743Z,7.63
